CBE3 weather

Beamsville/Panterra Heliport
Beamsville, Ontario, Canada

Public forecast

Using degrees Celsius for public forecast. Weather courtesy of forecast.io.

Closest aviation weather report (METAR) to Beamsville/Panterra Heliport

Closest report is Niagara District Airport, 13.2 nm (24.5 km) E. Retrieved 2019/10/16 23:00 UTC (10 minutes ago):

CYSN 162300Z 24004KT 15SM FEW030 SCT070 BKN120 09/08 A2950 RMK SC2AC2AC2 SLP991

Closest aviation forecast (TAF) to Beamsville/Panterra Heliport

Closest forecast is Niagara District Airport, 13.2 nm (24.5 km) E. Retrieved 2019/10/16 20:00 UTC (3 hours ago):

TAF CYSN 161938Z 1620/1701 26008KT 6SM -RA SCT012 OVC025 TEMPO 1620/1621 4SM -RA BR SCT007 BKN020 OVC040 FM162100 26010KT P6SM OVC020 TEMPO 1621/1701 SCT020 OVC030 RMK NXT FCST WILL BE ISSUED AT 171245Z